Edmonton, Kentucky
Current Conditions -  °F | °C
As of 3:55 AM on Sunday 25 Jan 2015 (Local Time) from KGLW Reporting Station
Clear Clear  
Wind Chill: 32°   Ceiling: Unl
Heat Index: 36°   Visibility: 10mi
Dew Point: 31°   Wind: 5mph
Humidity: 80%   Direction: 190°S
Pressure: 29.81"   Gusts: NA
Location:  36.98°N, 85.61°W
Report Text: KGLW 250955Z AUTO 19004KT 10SM CLR 02/M01 A2981 RMK AO2 T00241007
Loading
Personal Weather Stations






























Interactive Weather Map New forecast layout! Learn more

10-Day Weather Forecast

Advertisements
Track Severe Weather on mobile